Time;durP1;ratioP1;P1;durP2;ratioP2;P2;SDS_P1;SDS_P2;PMS_P1;PMS_P2;Temp;Humidity;BMP_temperature;BMP_pressure;BME280_temperature;BME280_humidity;BME280_pressure;Samples;Min_cycle;Max_cycle;Signal;HPM_P1;HPM_P2
2022/05/25 00:01:14;;;;;;;;;;;15.50;99.90;;;;;;5237659;28;19930;-72
2022/05/25 00:03:49;;;;;;;;;;;15.50;99.90;;;;;;5237989;28;19897;-74
2022/05/25 00:06:24;;;;;;;;;;;15.50;99.90;;;;;;5216808;28;19925;-74
2022/05/25 00:08:58;;;;;;;;;;;15.50;99.90;;;;;;5215209;28;19905;-74
2022/05/25 00:11:34;;;;;;;;;;;15.50;99.90;;;;;;5211799;28;19919;-75
2022/05/25 00:14:08;;;;;;;;;;;15.50;99.90;;;;;;5196245;28;19905;-75
2022/05/25 00:16:41;;;;;;;;;;;15.50;99.90;;;;;;5203942;28;20239;-76
2022/05/25 00:22:03;;;;;;;;;;;15.60;99.90;;;;;;5216039;28;19982;-73
2022/05/25 00:24:36;;;;;;;;;;;15.50;99.90;;;;;;5215649;28;19912;-73
2022/05/25 00:27:13;;;;;;;;;;;15.50;99.90;;;;;;5216084;28;19923;-75
2022/05/25 00:29:47;;;;;;;;;;;15.50;99.90;;;;;;5185499;28;20340;-75
2022/05/25 00:32:18;;;;;;;;;;;15.50;99.90;;;;;;5196788;28;19904;-74
2022/05/25 00:34:49;;;;;;;;;;;15.50;99.90;;;;;;5206093;28;19919;-74
2022/05/25 00:37:20;;;;;;;;;;;15.50;99.90;;;;;;5212168;28;19916;-75
2022/05/25 00:39:53;;;;;;;;;;;15.50;99.90;;;;;;5204994;28;19913;-74
2022/05/25 00:42:27;;;;;;;;;;;15.50;99.90;;;;;;5200556;28;19904;-75
2022/05/25 00:44:58;;;;;;;;;;;15.50;99.90;;;;;;5198240;28;19909;-75
2022/05/25 00:47:35;;;;;;;;;;;15.50;99.90;;;;;;5199396;28;19917;-74
2022/05/25 00:50:09;;;;;;;;;;;15.50;99.90;;;;;;5191874;28;20527;-75
2022/05/25 00:52:47;;;;;;;;;;;15.40;99.90;;;;;;5182637;28;19905;-75
2022/05/25 00:55:26;;;;;;;;;;;15.50;99.90;;;;;;5204652;28;19916;-74
2022/05/25 00:58:04;;;;;;;;;;;15.40;99.90;;;;;;5213902;28;20295;-74
2022/05/25 01:00:37;;;;;;;;;;;15.50;99.90;;;;;;5198456;28;20454;-74
2022/05/25 01:03:10;;;;;;;;;;;15.50;99.90;;;;;;5188816;28;19913;-75
2022/05/25 01:05:56;;;;;;;;;;;15.50;99.90;;;;;;5194170;28;19913;-75
2022/05/25 01:08:43;;;;;;;;;;;15.50;99.90;;;;;;5204484;28;20336;-75
2022/05/25 01:11:24;;;;;;;;;;;15.50;99.90;;;;;;5201533;28;19921;-74
2022/05/25 01:14:19;;;;;;;;;;;15.50;99.90;;;;;;5200843;28;19920;-72
2022/05/25 01:17:12;;;;;;;;;;;15.50;99.90;;;;;;5206845;28;19913;-74
2022/05/25 01:19:43;;;;;;;;;;;15.50;99.90;;;;;;5201224;28;19919;-74
2022/05/25 01:22:41;;;;;;;;;;;15.50;99.90;;;;;;5215757;28;19901;-75
2022/05/25 01:25:27;;;;;;;;;;;15.40;99.90;;;;;;5211220;28;19916;-74
2022/05/25 01:28:08;;;;;;;;;;;15.50;99.90;;;;;;5224898;28;19900;-74
2022/05/25 01:30:42;;;;;;;;;;;15.40;99.90;;;;;;5220909;28;19917;-75
2022/05/25 01:33:17;;;;;;;;;;;15.40;99.90;;;;;;5216852;28;19913;-76
2022/05/25 01:36:02;;;;;;;;;;;15.50;99.90;;;;;;5215339;28;20075;-75
2022/05/25 01:38:40;;;;;;;;;;;15.40;99.90;;;;;;5212828;28;20366;-75
2022/05/25 01:41:13;;;;;;;;;;;15.50;99.90;;;;;;5229282;28;19905;-75
2022/05/25 01:43:57;;;;;;;;;;;15.40;99.90;;;;;;5223747;28;19903;-75
2022/05/25 01:46:41;;;;;;;;;;;15.40;99.90;;;;;;5219101;28;19908;-73
2022/05/25 01:49:19;;;;;;;;;;;15.40;99.90;;;;;;5221358;28;19919;-76
2022/05/25 01:52:07;;;;;;;;;;;15.40;99.90;;;;;;5207485;28;19921;-75
2022/05/25 01:54:42;;;;;;;;;;;15.40;99.90;;;;;;5226033;28;19913;-74
2022/05/25 01:57:14;;;;;;;;;;;15.40;99.90;;;;;;5216833;28;19913;-74
2022/05/25 01:59:47;;;;;;;;;;;15.40;99.90;;;;;;5219642;28;20418;-75
2022/05/25 02:05:19;;;;;;;;;;;15.40;99.90;;;;;;5211490;28;19919;-73
2022/05/25 02:08:28;;;;;;;;;;;15.40;99.90;;;;;;5181968;28;19897;-75
2022/05/25 02:11:13;;;;;;;;;;;15.40;99.90;;;;;;5202909;28;19935;-74
2022/05/25 02:14:02;;;;;;;;;;;15.40;99.90;;;;;;5218665;28;20126;-74
2022/05/25 02:16:46;;;;;;;;;;;15.40;99.90;;;;;;5198547;28;19923;-74
2022/05/25 02:19:24;;;;;;;;;;;15.40;99.90;;;;;;5198488;28;19920;-74
2022/05/25 02:22:16;;;;;;;;;;;15.40;99.90;;;;;;5201330;28;19905;-74
2022/05/25 02:25:05;;;;;;;;;;;15.40;99.90;;;;;;5217974;28;19904;-74
2022/05/25 02:27:45;;;;;;;;;;;15.30;99.90;;;;;;5219239;28;19942;-75
2022/05/25 02:30:23;;;;;;;;;;;15.20;99.90;;;;;;5209281;28;19917;-74
2022/05/25 02:33:13;;;;;;;;;;;15.20;99.90;;;;;;5213551;28;19909;-74
2022/05/25 02:35:46;;;;;;;;;;;15.20;99.90;;;;;;5217329;28;19909;-74
2022/05/25 02:38:24;;;;;;;;;;;15.10;99.90;;;;;;5215283;28;19905;-75
2022/05/25 02:41:07;;;;;;;;;;;15.10;99.90;;;;;;5197297;28;20351;-74
2022/05/25 02:43:40;;;;;;;;;;;15.10;99.90;;;;;;5197542;28;19915;-74
2022/05/25 02:46:12;;;;;;;;;;;15.20;99.90;;;;;;5210892;28;19917;-75
2022/05/25 02:48:45;;;;;;;;;;;15.20;99.90;;;;;;5219397;28;19904;-75
2022/05/25 02:51:17;;;;;;;;;;;15.20;99.90;;;;;;5197018;28;20127;-74
2022/05/25 02:53:51;;;;;;;;;;;15.10;99.90;;;;;;5197038;28;19928;-74
2022/05/25 02:56:25;;;;;;;;;;;15.10;99.90;;;;;;5202711;28;19920;-74
2022/05/25 02:58:58;;;;;;;;;;;15.00;99.90;;;;;;5210481;28;19919;-74
2022/05/25 03:01:29;;;;;;;;;;;15.00;99.90;;;;;;5217293;28;19905;-74
2022/05/25 03:04:03;;;;;;;;;;;14.90;99.90;;;;;;5218467;28;19911;-73
2022/05/25 03:06:35;;;;;;;;;;;14.90;99.90;;;;;;5205671;28;19921;-74
2022/05/25 03:09:06;;;;;;;;;;;14.90;99.90;;;;;;5220348;28;20328;-73
2022/05/25 03:11:38;;;;;;;;;;;14.80;99.90;;;;;;5207738;28;19920;-73
2022/05/25 03:14:09;;;;;;;;;;;14.80;99.90;;;;;;5212868;28;19915;-73
2022/05/25 03:16:43;;;;;;;;;;;14.80;99.90;;;;;;5216181;28;19915;-73
2022/05/25 03:19:14;;;;;;;;;;;14.80;99.90;;;;;;5197636;28;19901;-73
2022/05/25 03:21:46;;;;;;;;;;;14.80;99.90;;;;;;5197947;28;19913;-73
2022/05/25 03:24:20;;;;;;;;;;;14.80;99.90;;;;;;5197369;28;19920;-73
2022/05/25 03:26:51;;;;;;;;;;;14.80;99.90;;;;;;5206653;28;19924;-73
2022/05/25 03:29:22;;;;;;;;;;;14.90;99.90;;;;;;5231898;28;19919;-73
2022/05/25 03:31:54;;;;;;;;;;;14.90;99.90;;;;;;5216632;28;19923;-74
2022/05/25 03:34:26;;;;;;;;;;;14.90;99.90;;;;;;5202998;28;19904;-74
2022/05/25 03:37:00;;;;;;;;;;;15.00;99.90;;;;;;5217867;28;20258;-74
2022/05/25 03:39:31;;;;;;;;;;;15.00;99.90;;;;;;5216957;28;19913;-73
2022/05/25 03:42:09;;;;;;;;;;;15.10;99.90;;;;;;5217322;28;19964;-74
2022/05/25 03:44:46;;;;;;;;;;;15.10;99.90;;;;;;5217167;28;20214;-74
2022/05/25 03:47:18;;;;;;;;;;;15.10;99.90;;;;;;5215170;28;20106;-75
2022/05/25 03:49:49;;;;;;;;;;;15.20;99.90;;;;;;5216624;28;20316;-74
2022/05/25 03:52:26;;;;;;;;;;;15.10;99.90;;;;;;5216549;28;19911;-74
2022/05/25 03:54:57;;;;;;;;;;;15.10;99.90;;;;;;5216049;28;19908;-74
2022/05/25 03:57:29;;;;;;;;;;;15.20;99.90;;;;;;5218441;28;19924;-74
2022/05/25 04:00:04;;;;;;;;;;;15.20;99.90;;;;;;5231752;28;20258;-74
2022/05/25 04:02:40;;;;;;;;;;;15.20;99.90;;;;;;5237338;28;19918;-74
2022/05/25 04:05:18;;;;;;;;;;;15.30;99.90;;;;;;5220952;28;19921;-74
2022/05/25 04:07:54;;;;;;;;;;;15.40;99.90;;;;;;5224866;28;19911;-74
2022/05/25 04:10:26;;;;;;;;;;;15.40;99.90;;;;;;5202342;28;19913;-74
2022/05/25 04:13:01;;;;;;;;;;;15.30;99.90;;;;;;5209564;28;19916;-74
2022/05/25 04:15:36;;;;;;;;;;;15.10;99.90;;;;;;5218836;28;19912;-73
2022/05/25 04:18:11;;;;;;;;;;;15.10;99.90;;;;;;5203133;28;19913;-74
2022/05/25 04:20:45;;;;;;;;;;;15.10;99.90;;;;;;5239166;28;19896;-74
2022/05/25 04:23:16;;;;;;;;;;;15.10;99.90;;;;;;5212060;28;19916;-74
2022/05/25 04:25:48;;;;;;;;;;;15.10;99.90;;;;;;5217130;28;19903;-74
2022/05/25 04:28:20;;;;;;;;;;;14.90;99.90;;;;;;5201005;28;19911;-74
2022/05/25 04:30:54;;;;;;;;;;;14.70;99.90;;;;;;5217960;28;20291;-73
2022/05/25 04:33:29;;;;;;;;;;;14.70;99.90;;;;;;5198274;28;19908;-74
2022/05/25 04:36:05;;;;;;;;;;;14.70;99.90;;;;;;5188795;28;19931;-72
2022/05/25 04:38:38;;;;;;;;;;;14.60;99.90;;;;;;5217323;28;20333;-73
2022/05/25 04:41:12;;;;;;;;;;;14.60;99.90;;;;;;5218388;28;19919;-73
2022/05/25 04:43:43;;;;;;;;;;;14.60;99.90;;;;;;5215902;28;19916;-73
2022/05/25 04:46:18;;;;;;;;;;;14.70;99.90;;;;;;5215757;28;20026;-72
2022/05/25 04:48:51;;;;;;;;;;;14.60;99.90;;;;;;5218047;28;19905;-72
2022/05/25 04:51:23;;;;;;;;;;;14.70;99.90;;;;;;5217592;28;19912;-74
2022/05/25 04:53:54;;;;;;;;;;;14.70;99.90;;;;;;5215702;28;20364;-74
2022/05/25 04:59:23;;;;;;;;;;;14.70;99.90;;;;;;5210869;28;20419;-72
2022/05/25 05:02:00;;;;;;;;;;;14.70;99.90;;;;;;5215359;28;20362;-73
2022/05/25 05:04:31;;;;;;;;;;;14.70;99.90;;;;;;5201794;28;19920;-74
2022/05/25 05:07:05;;;;;;;;;;;14.70;99.90;;;;;;5222028;28;19905;-73
2022/05/25 05:09:37;;;;;;;;;;;14.70;99.90;;;;;;5202571;28;19921;-73
2022/05/25 05:12:14;;;;;;;;;;;14.70;99.90;;;;;;5187248;28;19919;-73
2022/05/25 05:14:46;;;;;;;;;;;14.70;99.90;;;;;;5210542;28;19915;-72
2022/05/25 05:17:20;;;;;;;;;;;14.70;99.90;;;;;;5214210;28;19915;-73
2022/05/25 05:19:51;;;;;;;;;;;14.80;99.90;;;;;;5201359;28;19917;-72
2022/05/25 05:22:25;;;;;;;;;;;14.80;99.90;;;;;;5211917;28;19909;-72
2022/05/25 05:24:59;;;;;;;;;;;14.90;99.90;;;;;;5221272;28;20173;-73
2022/05/25 05:27:30;;;;;;;;;;;15.00;99.90;;;;;;5222253;28;19904;-73
2022/05/25 05:30:10;;;;;;;;;;;15.10;99.90;;;;;;5222222;28;19905;-73
2022/05/25 05:32:44;;;;;;;;;;;15.30;99.90;;;;;;5220729;28;19916;-73
2022/05/25 05:35:15;;;;;;;;;;;15.50;99.90;;;;;;5220962;28;19909;-73
2022/05/25 05:37:50;;;;;;;;;;;15.40;99.90;;;;;;5221377;28;19905;-73
2022/05/25 05:40:24;;;;;;;;;;;15.40;99.90;;;;;;5219923;28;19909;-73
2022/05/25 05:42:59;;;;;;;;;;;15.50;99.90;;;;;;5224151;28;19912;-73
2022/05/25 05:45:35;;;;;;;;;;;15.60;99.90;;;;;;5220237;28;20191;-73
2022/05/25 05:48:19;;;;;;;;;;;15.70;99.90;;;;;;5221501;28;19911;-73
2022/05/25 05:50:56;;;;;;;;;;;15.80;99.90;;;;;;5219735;28;20046;-73
2022/05/25 05:53:28;;;;;;;;;;;15.90;99.90;;;;;;5215816;28;19915;-73
2022/05/25 05:55:59;;;;;;;;;;;16.00;99.90;;;;;;5221750;28;19919;-73
2022/05/25 05:58:30;;;;;;;;;;;16.20;99.90;;;;;;5222873;28;19916;-73
2022/05/25 06:01:02;;;;;;;;;;;16.20;99.90;;;;;;5200434;28;19916;-74
2022/05/25 06:03:34;;;;;;;;;;;16.20;99.90;;;;;;5205238;28;20525;-73
2022/05/25 06:06:05;;;;;;;;;;;16.10;99.90;;;;;;5229470;28;19912;-73
2022/05/25 06:08:39;;;;;;;;;;;16.00;99.90;;;;;;5207881;28;19915;-73
2022/05/25 06:11:10;;;;;;;;;;;16.00;99.90;;;;;;5205220;28;19921;-73
2022/05/25 06:13:47;;;;;;;;;;;15.90;99.90;;;;;;5202575;28;19923;-73
2022/05/25 06:19:33;;;;;;;;;;;16.50;99.90;;;;;;5214082;28;19917;-74
2022/05/25 06:22:13;;;;;;;;;;;16.70;99.90;;;;;;5214977;28;19919;-74
2022/05/25 06:24:50;;;;;;;;;;;16.70;99.90;;;;;;5222559;28;19917;-74
2022/05/25 06:27:22;;;;;;;;;;;16.70;99.90;;;;;;5220834;28;19912;-74
2022/05/25 06:29:55;;;;;;;;;;;16.80;99.90;;;;;;5213984;28;19923;-75
2022/05/25 06:32:27;;;;;;;;;;;17.00;99.90;;;;;;5231299;28;19917;-74
2022/05/25 06:35:04;;;;;;;;;;;17.30;99.90;;;;;;5210379;28;20191;-74
2022/05/25 06:37:38;;;;;;;;;;;17.40;99.90;;;;;;5220234;28;19905;-73
2022/05/25 06:40:10;;;;;;;;;;;17.30;99.90;;;;;;5218514;28;19909;-72
2022/05/25 06:42:44;;;;;;;;;;;17.40;99.90;;;;;;5220763;28;20126;-72
2022/05/25 06:45:15;;;;;;;;;;;17.20;99.90;;;;;;5219276;28;19912;-73
2022/05/25 06:47:46;;;;;;;;;;;17.20;99.90;;;;;;5217697;28;19913;-76
2022/05/25 06:50:21;;;;;;;;;;;17.30;99.90;;;;;;5216138;28;19912;-76
2022/05/25 06:52:55;;;;;;;;;;;17.60;99.90;;;;;;5214614;28;19917;-74
2022/05/25 06:55:30;;;;;;;;;;;17.70;99.90;;;;;;5201764;28;19931;-75
2022/05/25 06:58:03;;;;;;;;;;;17.50;99.90;;;;;;5217305;28;19911;-74
2022/05/25 07:00:37;;;;;;;;;;;17.40;99.90;;;;;;5207778;28;19916;-74
2022/05/25 07:03:11;;;;;;;;;;;17.40;99.90;;;;;;5199877;28;19909;-75
2022/05/25 07:05:45;;;;;;;;;;;17.20;99.90;;;;;;5192606;28;20490;-75
2022/05/25 07:08:19;;;;;;;;;;;17.00;99.90;;;;;;5203302;28;20252;-74
2022/05/25 07:10:54;;;;;;;;;;;17.30;99.90;;;;;;5199326;28;20161;-75
2022/05/25 07:13:29;;;;;;;;;;;17.40;99.90;;;;;;5237636;28;19912;-75
2022/05/25 07:16:04;;;;;;;;;;;17.50;99.90;;;;;;5236352;28;19920;-75
2022/05/25 07:18:39;;;;;;;;;;;17.60;99.90;;;;;;5218985;28;20352;-77
2022/05/25 07:21:15;;;;;;;;;;;18.10;99.90;;;;;;5235295;28;19943;-75
2022/05/25 07:23:49;;;;;;;;;;;18.10;99.90;;;;;;5198555;28;19920;-76
2022/05/25 07:26:22;;;;;;;;;;;18.10;99.90;;;;;;5200436;28;19911;-74
2022/05/25 07:29:01;;;;;;;;;;;18.10;99.90;;;;;;5212631;28;19909;-74
2022/05/25 07:31:39;;;;;;;;;;;18.30;99.90;;;;;;5199742;28;19909;-75
2022/05/25 07:34:15;;;;;;;;;;;18.30;99.90;;;;;;5198808;28;19905;-72
2022/05/25 07:36:53;;;;;;;;;;;18.00;99.90;;;;;;5212083;28;19912;-76
2022/05/25 07:39:34;;;;;;;;;;;17.80;99.90;;;;;;5210240;28;19909;-73
2022/05/25 07:42:08;;;;;;;;;;;17.80;99.90;;;;;;5232126;28;19913;-75
2022/05/25 07:44:52;;;;;;;;;;;18.00;99.90;;;;;;5237588;28;20118;-76
2022/05/25 07:47:29;;;;;;;;;;;18.20;99.90;;;;;;5217846;28;19913;-76
2022/05/25 07:50:05;;;;;;;;;;;18.30;99.90;;;;;;5222644;28;19917;-76
2022/05/25 07:52:40;;;;;;;;;;;18.40;99.90;;;;;;5224605;28;19916;-77
2022/05/25 07:55:12;;;;;;;;;;;18.30;99.90;;;;;;5218042;28;19923;-76
2022/05/25 07:57:46;;;;;;;;;;;18.70;99.90;;;;;;5221313;28;19910;-76
2022/05/25 08:00:24;;;;;;;;;;;19.00;99.90;;;;;;5221423;28;20186;-76
2022/05/25 08:05:54;;;;;;;;;;;18.70;99.90;;;;;;5219306;28;19921;-76
2022/05/25 08:08:28;;;;;;;;;;;18.90;99.90;;;;;;5204920;28;19919;-76
2022/05/25 08:11:06;;;;;;;;;;;19.00;99.90;;;;;;5202340;28;19912;-77
2022/05/25 08:13:43;;;;;;;;;;;19.00;99.90;;;;;;5200713;28;19913;-77
2022/05/25 08:16:20;;;;;;;;;;;18.80;99.90;;;;;;5219245;28;19909;-78
2022/05/25 08:18:53;;;;;;;;;;;18.90;99.90;;;;;;5199942;28;20238;-74
2022/05/25 08:21:25;;;;;;;;;;;19.10;99.90;;;;;;5200539;28;20169;-77
2022/05/25 08:23:58;;;;;;;;;;;18.90;99.90;;;;;;5199292;28;19919;-78
2022/05/25 08:26:32;;;;;;;;;;;18.80;99.90;;;;;;5203731;28;19919;-76
2022/05/25 08:29:03;;;;;;;;;;;19.10;99.90;;;;;;5220479;28;20149;-76
2022/05/25 08:31:35;;;;;;;;;;;19.50;99.90;;;;;;5219995;28;20186;-76
2022/05/25 08:34:09;;;;;;;;;;;19.30;99.90;;;;;;5220371;28;19912;-76
2022/05/25 08:36:45;;;;;;;;;;;19.10;99.90;;;;;;5218615;28;20365;-76
2022/05/25 08:39:17;;;;;;;;;;;19.10;99.90;;;;;;5200372;28;20095;-75
2022/05/25 08:41:52;;;;;;;;;;;19.70;99.90;;;;;;5199537;28;19898;-77
2022/05/25 08:44:31;;;;;;;;;;;19.80;99.90;;;;;;5204733;28;19924;-75
2022/05/25 08:47:05;;;;;;;;;;;19.80;99.90;;;;;;5218482;28;19903;-76
2022/05/25 08:49:45;;;;;;;;;;;20.10;99.90;;;;;;5218454;28;19916;-75
2022/05/25 08:52:37;;;;;;;;;;;19.70;99.90;;;;;;5220227;28;20128;-76
2022/05/25 08:55:27;;;;;;;;;;;19.90;99.90;;;;;;5221417;28;19909;-75
2022/05/25 08:58:04;;;;;;;;;;;18.80;99.90;;;;;;5214642;28;20056;-76
2022/05/25 09:00:39;;;;;;;;;;;18.90;99.90;;;;;;5215256;28;19935;-77
2022/05/25 09:03:19;;;;;;;;;;;19.10;99.90;;;;;;5222340;28;19896;-76
2022/05/25 09:05:55;;;;;;;;;;;19.10;99.90;;;;;;5233211;28;19909;-77
2022/05/25 09:08:53;;;;;;;;;;;19.30;99.90;;;;;;5217007;28;19920;-77
2022/05/25 09:11:29;;;;;;;;;;;19.90;99.90;;;;;;5200070;28;20429;-76
2022/05/25 09:14:06;;;;;;;;;;;20.40;99.90;;;;;;5212040;28;19941;-76
2022/05/25 09:16:38;;;;;;;;;;;20.60;99.90;;;;;;5221969;28;19919;-77
2022/05/25 09:19:09;;;;;;;;;;;20.70;99.90;;;;;;5207920;28;19909;-75
2022/05/25 09:21:51;;;;;;;;;;;21.00;99.90;;;;;;5201542;28;20027;-76
2022/05/25 09:24:28;;;;;;;;;;;20.90;99.90;;;;;;5222705;28;19904;-75
2022/05/25 09:27:02;;;;;;;;;;;21.10;99.90;;;;;;5222414;28;19918;-76
2022/05/25 09:29:34;;;;;;;;;;;21.10;99.90;;;;;;5215772;28;19915;-76
2022/05/25 09:32:38;;;;;;;;;;;21.20;99.90;;;;;;5222979;28;19917;-76
2022/05/25 09:35:20;;;;;;;;;;;21.40;99.90;;;;;;5238379;28;19919;-76
2022/05/25 09:37:58;;;;;;;;;;;21.10;99.90;;;;;;5215980;28;19920;-76
2022/05/25 09:40:41;;;;;;;;;;;21.00;99.90;;;;;;5238859;28;19905;-76
2022/05/25 09:43:21;;;;;;;;;;;21.00;99.90;;;;;;5221160;28;19904;-76
2022/05/25 09:45:58;;;;;;;;;;;21.20;99.90;;;;;;5226649;28;19913;-76
2022/05/25 09:48:31;;;;;;;;;;;21.20;99.90;;;;;;5206059;28;20395;-74
2022/05/25 09:51:05;;;;;;;;;;;20.90;99.90;;;;;;5185076;28;19917;-76
2022/05/25 09:53:43;;;;;;;;;;;20.50;99.90;;;;;;5202325;28;19917;-75
2022/05/25 09:56:23;;;;;;;;;;;21.10;99.90;;;;;;5218197;28;19905;-75
2022/05/25 09:59:02;;;;;;;;;;;20.70;99.90;;;;;;5204783;28;19915;-74
2022/05/25 10:01:42;;;;;;;;;;;20.70;99.90;;;;;;5221724;28;20469;-75
2022/05/25 10:04:38;;;;;;;;;;;20.80;99.90;;;;;;5211331;28;19905;-77
2022/05/25 10:07:22;;;;;;;;;;;20.50;99.90;;;;;;5203504;28;19907;-76
2022/05/25 10:10:04;;;;;;;;;;;20.40;99.90;;;;;;5205428;28;20461;-76
2022/05/25 10:12:38;;;;;;;;;;;21.50;99.90;;;;;;5221956;28;19923;-75
2022/05/25 10:15:15;;;;;;;;;;;21.10;99.90;;;;;;5223949;28;19908;-77
2022/05/25 10:17:54;;;;;;;;;;;21.10;99.90;;;;;;5222383;28;20372;-76
2022/05/25 10:20:52;;;;;;;;;;;21.50;99.90;;;;;;5222104;28;19922;-77
2022/05/25 10:23:25;;;;;;;;;;;21.20;99.90;;;;;;5218558;28;19917;-75
2022/05/25 10:26:10;;;;;;;;;;;21.40;99.90;;;;;;5221650;28;19916;-75
2022/05/25 10:29:12;;;;;;;;;;;22.00;99.90;;;;;;5212879;28;19913;-75
2022/05/25 10:37:39;;;;;;;;;;;21.90;99.90;;;;;;5222070;28;19910;-75
2022/05/25 10:40:13;;;;;;;;;;;22.20;99.90;;;;;;5212304;28;19923;-75
2022/05/25 10:42:46;;;;;;;;;;;23.00;99.90;;;;;;5216172;28;19986;-75
2022/05/25 10:45:32;;;;;;;;;;;24.00;99.90;;;;;;5223079;28;19905;-75
2022/05/25 10:48:23;;;;;;;;;;;23.90;99.90;;;;;;5188482;28;19913;-76
2022/05/25 10:51:13;;;;;;;;;;;22.70;99.90;;;;;;5220114;28;19909;-74
2022/05/25 10:57:19;;;;;;;;;;;21.50;99.90;;;;;;5221504;28;19913;-75
2022/05/25 11:00:12;;;;;;;;;;;21.50;99.90;;;;;;5215097;28;19931;-77
2022/05/25 11:03:19;;;;;;;;;;;20.90;99.90;;;;;;5200119;28;19915;-76
2022/05/25 11:06:21;;;;;;;;;;;20.50;99.90;;;;;;5188166;28;19917;-76
2022/05/25 11:09:29;;;;;;;;;;;20.60;99.90;;;;;;5207015;28;19950;-77
2022/05/25 11:12:23;;;;;;;;;;;20.80;99.90;;;;;;5216178;28;20480;-76
2022/05/25 11:15:13;;;;;;;;;;;20.60;99.90;;;;;;5200418;28;20241;-76
2022/05/25 11:18:06;;;;;;;;;;;20.70;99.90;;;;;;5199970;28;19911;-76
2022/05/25 11:20:56;;;;;;;;;;;20.80;99.90;;;;;;5213601;28;19909;-74
2022/05/25 11:23:30;;;;;;;;;;;20.20;99.90;;;;;;5224014;28;20413;-74
2022/05/25 11:26:20;;;;;;;;;;;19.50;99.90;;;;;;5224546;28;20107;-76
2022/05/25 11:28:58;;;;;;;;;;;19.30;99.90;;;;;;5217009;28;19923;-76
2022/05/25 11:31:47;;;;;;;;;;;19.10;99.90;;;;;;5219905;28;19916;-76
2022/05/25 11:34:37;;;;;;;;;;;19.00;99.90;;;;;;5220248;28;19927;-75
2022/05/25 11:37:21;;;;;;;;;;;18.90;99.90;;;;;;5221171;28;20114;-75
2022/05/25 11:40:45;;;;;;;;;;;18.90;99.90;;;;;;5223965;28;19908;-76
2022/05/25 11:44:01;;;;;;;;;;;19.00;99.90;;;;;;5177629;28;19913;-77
2022/05/25 11:46:46;;;;;;;;;;;18.80;99.90;;;;;;5205504;28;20152;-75
2022/05/25 11:49:45;;;;;;;;;;;18.90;99.90;;;;;;5218981;28;19897;-77
2022/05/25 11:52:35;;;;;;;;;;;18.70;99.90;;;;;;5215837;28;20056;-74
2022/05/25 11:55:14;;;;;;;;;;;18.50;99.90;;;;;;5219577;28;20296;-75
2022/05/25 11:58:09;;;;;;;;;;;18.60;99.90;;;;;;5219210;28;19912;-74
2022/05/25 12:01:02;;;;;;;;;;;18.60;99.90;;;;;;5200262;28;19923;-74
2022/05/25 12:03:46;;;;;;;;;;;18.40;99.90;;;;;;5218851;28;19912;-75
2022/05/25 12:06:51;;;;;;;;;;;18.30;99.90;;;;;;5203759;28;19908;-74
2022/05/25 12:09:54;;;;;;;;;;;18.10;99.90;;;;;;5214559;28;19927;-74
2022/05/25 12:12:40;;;;;;;;;;;17.30;99.90;;;;;;5221354;28;20329;-73
2022/05/25 12:15:25;;;;;;;;;;;17.20;99.90;;;;;;5222815;28;19904;-74
2022/05/25 12:18:20;;;;;;;;;;;17.10;99.90;;;;;;5219805;28;20392;-76
2022/05/25 12:21:05;;;;;;;;;;;17.10;99.90;;;;;;5218007;28;20227;-76
2022/05/25 12:23:42;;;;;;;;;;;17.20;99.90;;;;;;5219507;28;19934;-75
2022/05/25 12:26:18;;;;;;;;;;;17.00;99.90;;;;;;5219022;28;19913;-75
2022/05/25 12:29:00;;;;;;;;;;;16.90;99.90;;;;;;5219955;28;20121;-74
2022/05/25 12:31:35;;;;;;;;;;;16.80;99.90;;;;;;5218901;28;19917;-74
2022/05/25 12:34:13;;;;;;;;;;;16.70;99.90;;;;;;5218515;28;19908;-75
2022/05/25 12:36:44;;;;;;;;;;;16.60;99.90;;;;;;5203735;28;20022;-74
2022/05/25 12:39:51;;;;;;;;;;;16.50;99.90;;;;;;5207913;28;19897;-74
2022/05/25 12:42:25;;;;;;;;;;;16.30;99.90;;;;;;5218393;28;19913;-75
2022/05/25 12:50:57;;;;;;;;;;;16.10;99.90;;;;;;5217516;28;19927;-77
2022/05/25 12:53:31;;;;;;;;;;;15.90;99.90;;;;;;5185659;28;19923;-73
2022/05/25 12:56:15;;;;;;;;;;;15.90;99.90;;;;;;5219620;28;19905;-73
2022/05/25 12:58:46;;;;;;;;;;;15.80;99.90;;;;;;5198387;28;19935;-75
2022/05/25 13:01:28;;;;;;;;;;;15.80;99.90;;;;;;5199347;28;19919;-73
2022/05/25 13:04:00;;;;;;;;;;;15.80;99.90;;;;;;5218572;28;20256;-76
2022/05/25 13:06:35;;;;;;;;;;;15.80;99.90;;;;;;5207212;28;19917;-76
2022/05/25 13:09:43;;;;;;;;;;;15.70;99.90;;;;;;5208236;28;20211;-77
2022/05/25 13:12:38;;;;;;;;;;;15.60;99.90;;;;;;5213827;28;20068;-74
2022/05/25 13:15:17;;;;;;;;;;;15.50;99.90;;;;;;5218265;28;20194;-76
2022/05/25 13:17:57;;;;;;;;;;;15.50;99.90;;;;;;5219544;28;19923;-73
2022/05/25 13:20:29;;;;;;;;;;;15.60;99.90;;;;;;5229248;28;19909;-73
2022/05/25 13:23:02;;;;;;;;;;;15.60;99.90;;;;;;5199214;28;19905;-73
2022/05/25 13:25:40;;;;;;;;;;;15.60;99.90;;;;;;5197812;28;20126;-73
2022/05/25 13:28:21;;;;;;;;;;;15.80;99.90;;;;;;5212999;28;20457;-74
2022/05/25 13:31:23;;;;;;;;;;;16.00;99.90;;;;;;5214067;28;19913;-74
2022/05/25 13:33:56;;;;;;;;;;;16.10;99.90;;;;;;5212263;28;19913;-74
2022/05/25 13:36:28;;;;;;;;;;;16.20;99.90;;;;;;5218873;28;19939;-74
2022/05/25 13:39:06;;;;;;;;;;;16.30;99.90;;;;;;5212158;28;20068;-74
2022/05/25 13:42:10;;;;;;;;;;;16.30;99.90;;;;;;5206377;28;20302;-72
2022/05/25 13:44:44;;;;;;;;;;;16.20;99.90;;;;;;5213145;28;19917;-74
2022/05/25 13:47:20;;;;;;;;;;;16.10;99.90;;;;;;5220909;28;19935;-74
2022/05/25 13:49:58;;;;;;;;;;;16.10;99.90;;;;;;5206777;28;20374;-74
2022/05/25 13:52:33;;;;;;;;;;;16.10;99.90;;;;;;5215990;28;19921;-73
2022/05/25 13:55:33;;;;;;;;;;;16.10;99.90;;;;;;5185849;28;19924;-73
2022/05/25 13:58:10;;;;;;;;;;;16.20;99.90;;;;;;5218006;28;19912;-74
2022/05/25 14:00:47;;;;;;;;;;;16.30;99.90;;;;;;5217146;28;19916;-74
2022/05/25 14:03:23;;;;;;;;;;;16.50;99.90;;;;;;5215926;28;19909;-74
2022/05/25 14:05:57;;;;;;;;;;;16.50;99.90;;;;;;5207037;28;19917;-74
2022/05/25 14:11:27;;;;;;;;;;;16.60;99.90;;;;;;5219780;28;19917;-77
2022/05/25 14:13:59;;;;;;;;;;;16.70;99.90;;;;;;5203601;28;20235;-75
2022/05/25 14:16:30;;;;;;;;;;;16.90;99.90;;;;;;5220448;28;20292;-75
2022/05/25 14:19:05;;;;;;;;;;;16.90;99.90;;;;;;5221394;28;19913;-75
2022/05/25 14:21:41;;;;;;;;;;;16.90;99.90;;;;;;5220172;28;20243;-74
2022/05/25 14:24:22;;;;;;;;;;;16.90;99.90;;;;;;5234559;28;19943;-75
2022/05/25 14:26:56;;;;;;;;;;;16.80;99.90;;;;;;5221682;28;19904;-74
2022/05/25 14:29:30;;;;;;;;;;;17.00;99.90;;;;;;5221214;28;20137;-75
2022/05/25 14:32:26;;;;;;;;;;;16.90;99.90;;;;;;5216339;28;19916;-75
2022/05/25 14:35:05;;;;;;;;;;;16.70;99.90;;;;;;5221496;28;19913;-75
2022/05/25 14:37:39;;;;;;;;;;;16.70;99.90;;;;;;5220048;28;19913;-75
2022/05/25 14:40:20;;;;;;;;;;;16.60;99.90;;;;;;5219656;28;19979;-75
2022/05/25 14:42:59;;;;;;;;;;;16.70;99.90;;;;;;5219367;28;20114;-76
2022/05/25 14:45:31;;;;;;;;;;;16.60;99.90;;;;;;5203575;28;19913;-73
2022/05/25 14:48:02;;;;;;;;;;;16.70;99.90;;;;;;5218585;28;19918;-76
2022/05/25 14:50:43;;;;;;;;;;;16.60;99.90;;;;;;5217810;28;19908;-73
2022/05/25 14:53:36;;;;;;;;;;;16.50;99.90;;;;;;5216832;28;20371;-76
2022/05/25 14:56:20;;;;;;;;;;;16.40;99.90;;;;;;5219004;28;19916;-75
2022/05/25 14:58:55;;;;;;;;;;;16.40;99.90;;;;;;5197745;28;19916;-76
2022/05/25 15:01:34;;;;;;;;;;;16.50;99.90;;;;;;5217359;28;20153;-77
2022/05/25 15:04:16;;;;;;;;;;;16.30;99.90;;;;;;5219270;28;19912;-75
2022/05/25 15:06:47;;;;;;;;;;;16.00;99.90;;;;;;5208681;28;19909;-75
2022/05/25 15:09:28;;;;;;;;;;;15.70;99.90;;;;;;5217996;28;19919;-74
2022/05/25 15:12:23;;;;;;;;;;;15.60;99.90;;;;;;5219108;28;19919;-75
2022/05/25 15:18:29;;;;;;;;;;;15.50;99.90;;;;;;5219869;28;20233;-74
2022/05/25 15:21:26;;;;;;;;;;;15.50;99.90;;;;;;5218958;28;19913;-75
2022/05/25 15:24:02;;;;;;;;;;;15.40;99.90;;;;;;5224562;28;19920;-74
2022/05/25 15:26:36;;;;;;;;;;;15.40;99.90;;;;;;5198062;28;19911;-74
2022/05/25 15:29:29;;;;;;;;;;;15.40;99.90;;;;;;5219024;28;19905;-74
2022/05/25 15:32:03;;;;;;;;;;;15.40;99.90;;;;;;5218843;28;19913;-73
2022/05/25 15:34:40;;;;;;;;;;;15.40;99.90;;;;;;5216978;28;20105;-74
2022/05/25 15:37:21;;;;;;;;;;;15.40;99.90;;;;;;5222380;28;19904;-74
2022/05/25 15:39:58;;;;;;;;;;;15.40;99.90;;;;;;5211429;28;20013;-73
2022/05/25 15:42:30;;;;;;;;;;;15.40;99.90;;;;;;5220138;28;19917;-74
2022/05/25 15:45:04;;;;;;;;;;;15.40;99.90;;;;;;5220215;28;20005;-73
2022/05/25 15:47:35;;;;;;;;;;;15.40;99.90;;;;;;5220993;28;19904;-75
2022/05/25 15:50:09;;;;;;;;;;;15.40;99.90;;;;;;5217998;28;19917;-74
2022/05/25 15:52:40;;;;;;;;;;;15.50;99.90;;;;;;5218760;28;19917;-73
2022/05/25 15:55:14;;;;;;;;;;;15.60;99.90;;;;;;5214835;28;19917;-74
2022/05/25 15:57:49;;;;;;;;;;;15.60;99.90;;;;;;5215050;28;19916;-73